21 Aug 2018 01:49 UTC 2018233+01:49 UTC

Overview Datums Bench Marks Data Query Site Visit Daily QC Messages Attributes

079: SALT08

27° 52' 14" N   97° 31' 3" W
SALT08
City of Corpus Christi Salinity Monitoring Salinity

Station Information

SALT08
SALT08
more pictures
 
Station Name:SALT08
DNR ID:079
Location:27° 52' 14" N, 97° 31' 3" W

Water Level Forecasts

Latest Observations

Series Metric English Marine Observed at
Water Temperature 31.7 °C 89.1 °F 89.1 °F Aug 20 20:36 CDT
00h07m ago
Salinity 30.300 psu 30.300 psu 30.300 psu Aug 20 20:36 CDT
00h07m ago

Maps

SALT08
All Stations in Area
Entire Network
 

Recent Observations

Date/Time Water
Temp (°F)
Sal (psu)
Aug 20 20:00 CDT 90.3 30.200
Aug 20 19:00 CDT 90.7 30.000
Aug 20 18:00 CDT 90.7 29.900
Aug 20 17:00 CDT 90.1 29.800
Aug 20 16:00 CDT 88.0 29.800
Aug 20 15:00 CDT 86.2 29.700
Aug 20 14:00 CDT 85.8 29.700
Aug 20 13:00 CDT 85.1 29.500
Aug 20 12:00 CDT 84.4 29.600
Aug 20 11:00 CDT 82.4 29.900
Aug 20 10:00 CDT 82.2 29.900
Aug 20 09:00 CDT 81.7 29.900
Aug 20 08:00 CDT 81.7 29.900
Aug 20 07:00 CDT 81.7 29.900
Aug 20 06:00 CDT 82.0 29.900
Aug 20 05:00 CDT 82.0 29.900
Aug 20 04:00 CDT 82.2 29.900
Aug 20 03:00 CDT 82.6 29.900
Aug 20 02:00 CDT 82.8 30.000
Aug 20 01:00 CDT 82.6 30.000
Aug 20 00:00 CDT 83.1 30.000
Aug 19 23:00 CDT 84.0 29.900
Aug 19 22:00 CDT 85.5 29.900
Aug 19 21:00 CDT 86.7 29.600
Aug 19 20:00 CDT 88.5 29.700

Historical Data Availability